createdAt,value
2019-03-26T00:01:19.342Z,57.27
2019-03-26T00:05:51.792Z,70.80
2019-03-26T00:10:26.879Z,73.20
2019-03-26T00:15:03.060Z,66.57
2019-03-26T00:19:35.625Z,69.43
2019-03-26T00:24:09.590Z,66.97
2019-03-26T00:28:44.634Z,66.73
2019-03-26T00:33:17.933Z,66.97
2019-03-26T00:37:51.736Z,61.83
2019-03-26T00:42:26.195Z,47.50
2019-03-26T00:47:00.076Z,71.37
2019-03-26T00:51:34.866Z,49.23
2019-03-26T00:56:08.135Z,58.43
2019-03-26T01:00:48.732Z,54.07
2019-03-26T01:05:22.379Z,51.47
2019-03-26T01:09:57.287Z,59.93
2019-03-26T01:19:07.835Z,59.47
2019-03-26T01:23:40.022Z,47.03
2019-03-26T01:28:14.984Z,54.73
2019-03-26T01:32:48.815Z,51.77
2019-03-26T01:37:21.787Z,62.43
2019-03-26T01:41:55.922Z,44.73
2019-03-26T01:46:34.851Z,45.43
2019-03-26T01:51:06.729Z,44.57
2019-03-26T01:55:41.577Z,34.43
2019-03-26T02:00:15.741Z,41.63
2019-03-26T02:04:59.896Z,46.63
2019-03-26T02:09:29.177Z,28.77
2019-03-26T02:14:04.163Z,38.67
2019-03-26T02:18:36.950Z,33.37
2019-03-26T02:23:13.874Z,35.27
2019-03-26T02:27:46.541Z,36.37
2019-03-26T02:32:21.619Z,31.03
2019-03-26T02:36:55.611Z,38.57
2019-03-26T02:45:56.750Z,30.50
2019-03-26T02:50:29.930Z,41.67
2019-03-26T02:54:57.024Z,41.43
2019-03-26T02:59:29.833Z,43.87
2019-03-26T03:04:05.916Z,48.13
2019-03-26T03:08:37.160Z,40.83
2019-03-26T03:13:10.018Z,53.60
2019-03-26T03:26:41.732Z,44.37
2019-03-26T03:31:15.091Z,50.90
2019-03-26T03:35:52.642Z,40.73
2019-03-26T03:40:23.058Z,43.70
2019-03-26T03:44:57.444Z,45.50
2019-03-26T03:49:34.377Z,36.33
2019-03-26T03:54:06.869Z,46.63
2019-03-26T03:58:42.350Z,44.33
2019-03-26T04:03:18.837Z,43.40
2019-03-26T04:07:52.602Z,48.57
2019-03-26T04:12:27.794Z,52.50
2019-03-26T04:21:39.946Z,56.73
2019-03-26T04:26:13.847Z,49.27
2019-03-26T04:30:47.578Z,56.63
2019-03-26T04:35:24.884Z,49.70
2019-03-26T04:39:58.633Z,62.70
2019-03-26T04:44:31.654Z,56.60
2019-03-26T04:49:05.304Z,50.57
2019-03-26T04:53:38.383Z,60.27
2019-03-26T04:58:15.819Z,52.77
2019-03-26T05:02:50.677Z,49.73
2019-03-26T05:07:22.342Z,55.83
2019-03-26T05:11:58.441Z,60.50
2019-03-26T05:16:32.823Z,53.50
2019-03-26T05:21:05.549Z,50.83
2019-03-26T05:25:40.806Z,51.77
2019-03-26T05:30:16.974Z,43.87
2019-03-26T05:34:56.974Z,37.70
2019-03-26T05:39:27.475Z,75.90
2019-03-26T05:44:02.410Z,50.27
2019-03-26T05:48:36.160Z,78.83
2019-03-26T05:57:45.847Z,64.33
2019-03-26T06:02:22.389Z,78.70
2019-03-26T06:07:04.810Z,64.93
2019-03-26T06:11:31.745Z,63.60
2019-03-26T06:16:06.020Z,67.87
2019-03-26T06:20:43.766Z,100.30
2019-03-26T06:25:37.698Z,91.20
2019-03-26T06:34:46.458Z,92.33
2019-03-26T06:39:22.447Z,70.30
2019-03-26T06:43:57.535Z,44.87
2019-03-26T06:48:31.299Z,60.40
2019-03-26T06:53:03.642Z,64.80
2019-03-26T06:57:36.252Z,86.33
2019-03-26T07:02:08.051Z,69.63
2019-03-26T07:11:24.739Z,75.20
2019-03-26T07:16:17.305Z,50.20
2019-03-26T07:20:51.492Z,39.23
2019-03-26T07:25:23.696Z,48.90
2019-03-26T07:29:57.348Z,33.30
2019-03-26T07:34:31.932Z,25.53
2019-03-26T07:39:05.583Z,41.00
2019-03-26T07:43:37.085Z,46.77
2019-03-26T07:48:07.909Z,47.00
2019-03-26T07:52:45.892Z,49.93
2019-03-26T07:57:24.391Z,43.40
2019-03-26T08:02:18.833Z,53.57
2019-03-26T08:06:58.285Z,36.87
2019-03-26T08:11:31.796Z,46.87
2019-03-26T08:16:04.772Z,52.60
2019-03-26T08:20:43.800Z,46.67
2019-03-26T08:25:17.657Z,43.03
2019-03-26T08:29:51.847Z,57.77
2019-03-26T08:34:24.924Z,49.80
2019-03-26T08:39:20.168Z,48.43
2019-03-26T08:43:57.618Z,36.53
2019-03-26T08:48:32.559Z,39.23
2019-03-26T08:53:04.835Z,34.03
2019-03-26T08:57:38.137Z,49.53
2019-03-26T09:02:12.582Z,44.43
2019-03-26T09:06:47.126Z,45.63
2019-03-26T09:11:19.844Z,42.50
2019-03-26T13:32:47.404Z,15.03
2019-03-26T13:37:21.908Z,10.67
2019-03-26T13:41:55.071Z,9.07
2019-03-26T13:46:30.181Z,15.20
2019-03-26T13:51:02.426Z,43.70
2019-03-26T13:55:40.219Z,11.47
2019-03-26T14:00:12.373Z,17.17
2019-03-26T14:04:43.090Z,14.97
2019-03-26T14:09:17.019Z,17.23
2019-03-26T14:13:50.498Z,14.70
2019-03-26T14:18:26.749Z,15.77
2019-03-26T14:23:00.593Z,24.50
2019-03-26T14:27:33.273Z,12.90
2019-03-26T14:32:06.915Z,25.77
2019-03-26T14:36:40.754Z,25.93
2019-03-26T14:41:53.298Z,23.33
2019-03-26T14:46:26.586Z,42.57
2019-03-26T14:51:02.232Z,12.80
2019-03-26T14:55:38.655Z,14.83
2019-03-26T15:00:11.138Z,19.70
2019-03-26T15:04:43.178Z,15.47
2019-03-26T15:09:18.762Z,2.80
2019-03-26T15:13:51.492Z,3.17
2019-03-26T15:18:26.962Z,8.37
2019-03-26T15:22:59.693Z,3.13
2019-03-26T15:27:32.818Z,3.93
2019-03-26T15:32:06.816Z,4.77
2019-03-26T15:36:41.224Z,4.47
2019-03-26T15:41:21.910Z,11.83
2019-03-26T15:45:52.013Z,5.07
2019-03-26T15:50:30.734Z,9.53
2019-03-26T15:55:02.400Z,10.63
2019-03-26T15:59:35.204Z,10.20
2019-03-26T16:04:17.920Z,15.33
2019-03-26T16:08:51.579Z,10.83
2019-03-26T16:13:24.098Z,7.47
2019-03-26T16:17:58.188Z,9.67
2019-03-26T16:22:32.543Z,16.50
2019-03-26T16:27:10.099Z,8.80
2019-03-26T16:32:02.712Z,15.90
2019-03-26T16:36:35.360Z,8.70
2019-03-26T16:45:43.701Z,13.53
2019-03-26T16:50:21.524Z,19.23
2019-03-26T16:54:54.550Z,14.20
2019-03-26T16:59:29.921Z,12.90
2019-03-26T17:04:02.976Z,9.93
2019-03-26T17:08:38.068Z,15.07
2019-03-26T17:13:12.142Z,14.10
2019-03-26T17:17:47.147Z,13.57
2019-03-26T17:22:21.362Z,14.93
2019-03-26T17:26:55.258Z,18.43
2019-03-26T17:31:29.055Z,14.80
2019-03-26T17:36:02.251Z,17.50
2019-03-26T17:40:35.792Z,19.93
2019-03-26T17:45:10.179Z,21.13
2019-03-26T17:49:42.805Z,21.77
2019-03-26T17:54:18.641Z,25.23
2019-03-26T17:58:52.513Z,11.20
2019-03-26T18:07:58.592Z,13.73
2019-03-26T18:12:34.275Z,14.17
2019-03-26T18:17:07.452Z,12.97
2019-03-26T18:21:50.848Z,18.87
2019-03-26T18:26:17.419Z,14.03
2019-03-26T18:30:54.915Z,17.10
2019-03-26T18:35:30.502Z,15.20
2019-03-26T18:40:01.115Z,18.97
2019-03-26T18:44:41.693Z,18.97
2019-03-26T18:49:14.798Z,11.30
2019-03-26T18:53:50.638Z,18.00
2019-03-26T18:58:42.791Z,14.83
2019-03-26T19:03:20.910Z,21.70
2019-03-26T19:07:55.350Z,21.43
2019-03-26T19:12:31.739Z,9.57
2019-03-26T19:17:02.790Z,18.27
2019-03-26T19:21:38.307Z,19.43
2019-03-26T19:26:14.219Z,15.63
2019-03-26T19:30:49.979Z,11.83
2019-03-26T19:35:22.855Z,13.17
2019-03-26T19:39:55.604Z,9.37
2019-03-26T19:49:01.672Z,11.37
2019-03-26T19:53:34.789Z,14.50
2019-03-26T19:58:10.819Z,13.37
2019-03-26T20:03:02.791Z,10.70
2019-03-26T20:07:35.505Z,13.60
2019-03-26T20:12:07.322Z,10.60
2019-03-26T20:16:42.144Z,12.20
2019-03-26T20:21:12.621Z,13.47
2019-03-26T20:25:45.946Z,11.63
2019-03-26T20:30:18.588Z,11.37
2019-03-26T20:34:55.526Z,15.37
2019-03-26T20:39:49.669Z,10.90
2019-03-26T20:44:25.518Z,11.83
2019-03-26T20:48:58.256Z,8.93
2019-03-26T20:53:30.479Z,10.57
2019-03-26T21:02:34.903Z,6.53
2019-03-26T21:07:10.284Z,12.37
2019-03-26T21:16:18.487Z,9.63
2019-03-26T21:20:53.253Z,6.93
2019-03-26T21:25:28.329Z,16.77
2019-03-26T21:30:11.590Z,14.97
2019-03-26T21:34:37.880Z,13.57
2019-03-26T21:39:10.441Z,10.63
2019-03-26T21:43:44.767Z,11.67
2019-03-26T21:48:17.253Z,15.00
2019-03-26T21:52:56.668Z,8.67
2019-03-26T21:57:30.245Z,7.90
2019-03-26T22:02:03.344Z,9.57
2019-03-26T22:06:45.031Z,13.93
2019-03-26T22:11:19.227Z,14.17
2019-03-26T22:15:50.108Z,14.13
2019-03-26T22:20:42.120Z,11.10
2019-03-26T22:25:12.897Z,11.47
2019-03-26T22:29:50.611Z,11.17
2019-03-26T22:34:42.445Z,10.47
2019-03-26T22:39:17.000Z,10.50
2019-03-26T22:43:48.815Z,17.67
2019-03-26T22:48:22.412Z,12.80
2019-03-26T22:52:57.369Z,10.90
2019-03-26T22:57:32.693Z,11.17
2019-03-26T23:02:07.753Z,12.50
2019-03-26T23:06:42.058Z,9.60
2019-03-26T23:11:12.744Z,8.33
2019-03-26T23:15:45.293Z,11.53
2019-03-26T23:20:22.962Z,10.63
2019-03-26T23:25:00.777Z,12.67
2019-03-26T23:29:30.653Z,8.90
2019-03-26T23:34:02.813Z,12.67
2019-03-26T23:38:37.035Z,10.17
2019-03-26T23:43:11.058Z,10.73
2019-03-26T23:47:43.606Z,8.50
2019-03-26T23:52:16.806Z,11.50
2019-03-26T23:56:51.059Z,12.30
